Airfield :
LOGIN :

Register | Disclaimer

   EN    FR    IT 

 










Legend :    VFR   Marginal VFR   IFR   Intensive IFR   Very Intensive IFR
Visi :
Ceiling :
>= 8 km
>= 3000ft
5 to 8 km
1000 to 3000 ft
1500m to 5 km
500 to 1000 ft
800 to 1500m
200 to 500 ft
< 800m
< 200 ft
Symbols :   Thunderstorms  Fog  Heavy snow  Heavy precipitations  Wind > 20 kt
SIGMETs :     Misc.  Thunderstorms  Icing  Turbulence  Mountain Waves  Volcanic Ashes






- Airport Elevation : 538 ft
- IATA code : TNF


LFPN - Toussus Le Noble

CURRENT METAR :
  • 271800Z AUTO 32013KT 9999 SCT035/// BKN041/// BKN048/// 05/M00 Q1011 BECMG 26007KT

EXPIRED METARs :
  • 271730Z AUTO 32018KT 9999 SCT030/// BKN037/// 06/M00 Q1009 BECMG 26007KT
  • 271700Z AUTO 32019KT 9999 BKN033/// BKN039/// BKN045/// 06/00 Q1008 BECMG 26007KT
  • 271630Z AUTO 32021KT 9999 BKN032/// BKN040/// OVC047/// 06/00 Q1007 BECMG 26007KT
  • 271600Z AUTO 32024G34KT 9999 SCT033/// BKN041/// BKN052/// 06/01 Q1005 NOSIG
  • 271530Z AUTO 31025KT 9999 BKN030/// OVC035/// 07/01 Q1004 BECMG 30017G30KT

TAF TAF LFPN
Valid from the 27 at 18:00 until the 28 at 03:00 UTC


271700Z 2718/2803 30015G25KT 9999 SCT025
BECMG 2718/2721 26007KT CAVOK
BECMG 2802/2803 18005KT
ATIS : +33 1 39 56 54 70



MET'MAP, your aeronautical weather chart ! - Copyright ORBIFLY December 2007 - Disclaimer

ORBIFLY MET'MAP TEAM :

Programming & Development : Alexandra Zaïnal
Concept & original design : Baudouin d'Aumeries
Assistance for programming : Marc-Olivier Méhu
Technical & hardware support : Manuel Goepfert

Contact : metmap@orbifly.com




SOURCES & CREDITS :

   NOAA